Tokio, TX (79376)

12:15 AM CDT on August 02, 2015 (GMT -0500)
WT_Meso | | Change Station
CLOSE
Current Station
Personal Weather Station
Location: Sundown, TX
Elevation: 3625 ft
Nearby Weather Stations

Elev 3625 ft 33.39 °N, 102.61 °W | Updated 20 minutes ago

Mostly Cloudy
Mostly Cloudy
71 °F
Feels Like 71 °F
N
4
Wind Variable Wind from SSE
Gusts 6.0 mph

Today
High -- | Low -- °F
--% Chance of Precip.
Yesterday
High -- | Low -- °F
Precip. -- in
7:03 AM 8:48 PM
Waning Gibbous, 96% visible
Pressure 30.11 in
Visibility 10.0 miles
Clouds Scattered Clouds 12000 ft
Dew Point 67 °F
Humidity 88%
Rainfall in
Snow Depth Not available.
UV 0 out of 12
Pollen .90 out of 12
Air Quality Not available.
Flu Activity Not available.
METAR KGNC 020455Z AUTO 09004KT 10SM SCT120 26/18 A3011 RMK AO2 T02600179

More Conditions Fewer Conditions

Pressure 30.11 in
Visibility 10.0 miles
Clouds Scattered Clouds 12000 ft
Dew Point 67 °F
Humidity 88%
Rainfall in
Snow Depth Not available.
UV 0 out of 12
Pollen .90 out of 12
Air Quality Not available.
Flu Activity Not available.
METAR KGNC 020455Z AUTO 09004KT 10SM SCT120 26/18 A3011 RMK AO2 T02600179

More Conditions Fewer Conditions

Nowcast | as of 11:41 PM CDT on August 1, 2015

An area of light rain will continue to slowly move east across the southern South Plains into the rolling plains through 2 am. A batch of heavier showers and thunderstorms will also move southeast across southern Yoakum and Terry counties. For the most part only a few hundredths of an inch of rain is expected outside of the heavier showers. Otherwise a partly cloud sky is expected with temperatures holding in the upper 60s to lower 70s.

×

10-Day Weather Forecast

×

Almanac

Astronomy

Aug. 02, 2015 Rise Set
Actual Time
Civil Twilight
Nautical Twilight
Astronomical Twilight
Moon
Length of Visible Light
Length of Day
Tomorrow will be .
, % of the Moon is Illuminated

Today's Extremes

State Highs State Lows

Community

WunderPhotos

Upload Photos

1,843,190 photos uploaded!

WunderBlogs® & News

Nearby

Air Quality

  Air Quality AQ Index Pollutant
Not available.

Snow Depth

Station Depth Elevation

Earthquake Activity

City Distance Mag. Time & Date
Minimum magnitude displayed is 2.5.

Coastal Water Temperatures

Place Temperature

Stations

Nearby Weather Stations

Station Location Temp. Windchill Dew Point Humidity Wind Precip. Elev Updated Type